^^
Station Historical Data
Daily Summary for November 1, 2017 Units:  English    Metric   Both
« Previous Day
Next Day »
Daily Weekly Monthly Yearly Custom
  High: Low: Average:
Temperature: 53.1 °F 36.9 °F 45.5 °F
Dew Point: 49.4 °F 29.8 °F 38.2 °F
Humidity: 87% 57% 76%
Wind Speed: 2.0mph 0.0mph 0.1mph
Wind Gust: 6.0mph - -
Wind- - WSW
Pressure: 30.38 in 30.26 in -
Precipitation: 0.00 in    
Historical Graphs
 
 
Tabular Data for November 1, 2017
Time Temperature Dew Point Pressure Wind Wind Speed Wind Gust Humidity Rainfall Rate (Hourly) Conditions
00:00 44.4 °F 31.0 °F 30.26 in Calm   5.0 mph 59% 0.00 in CLR
00:10 44.6 °F 31.1 °F 30.26 in Calm   4.0 mph 59% 0.00 in CLR
00:20 44.6 °F 30.7 °F 30.27 in Calm   3.0 mph 58% 0.00 in CLR
00:30 44.2 °F 30.8 °F 30.27 in NW 1.0 mph 4.0 mph 59% 0.00 in CLR
00:40 44.2 °F 30.3 °F 30.26 in Calm   2.0 mph 58% 0.00 in CLR
00:50 44.3 °F 30.9 °F 30.27 in Calm   2.0 mph 59% 0.00 in CLR
01:00 44.1 °F 30.7 °F 30.27 in Calm   4.0 mph 59% 0.00 in CLR
01:10 44.1 °F 30.7 °F 30.27 in NE 1.0 mph 3.0 mph 59% 0.00 in CLR
01:20 44.4 °F 30.5 °F 30.27 in NNW 1.0 mph 6.0 mph 58% 0.00 in CLR
01:30 44.7 °F 30.4 °F 30.27 in NNW 2.0 mph 5.0 mph 57% 0.00 in CLR
01:40 44.5 °F 30.6 °F 30.27 in Calm   3.0 mph 58% 0.00 in CLR
01:50 44.3 °F 30.9 °F 30.28 in Calm   3.0 mph 59% 0.00 in CLR
02:00 43.9 °F 31.7 °F 30.28 in Calm   3.0 mph 62% 0.00 in CLR
02:10 42.5 °F 31.2 °F 30.28 in Calm     64% 0.00 in CLR
02:20 42.1 °F 31.2 °F 30.28 in Calm     65% 0.00 in CLR
02:30 41.4 °F 31.2 °F 30.29 in Calm     67% 0.00 in CLR
02:40 41.6 °F 31.4 °F 30.29 in Calm   2.0 mph 67% 0.00 in CLR
02:50 41.0 °F 30.9 °F 30.29 in Calm   1.0 mph 67% 0.00 in CLR
03:00 40.6 °F 30.8 °F 30.28 in Calm     68% 0.00 in CLR
03:10 40.0 °F 30.6 °F 30.29 in Calm   1.0 mph 69% 0.00 in CLR
03:20 39.9 °F 30.5 °F 30.29 in Calm   1.0 mph 69% 0.00 in CLR
03:30 40.3 °F 30.2 °F 30.29 in Calm   1.0 mph 67% 0.00 in CLR
03:40 40.2 °F 30.5 °F 30.29 in Calm   1.0 mph 68% 0.00 in CLR
03:50 39.8 °F 30.5 °F 30.29 in Calm     69% 0.00 in CLR
04:00 39.5 °F 30.5 °F 30.29 in Calm     70% 0.00 in CLR
04:10 39.7 °F 30.4 °F 30.28 in Calm     69% 0.00 in CLR
04:20 40.0 °F 30.6 °F 30.28 in Calm     69% 0.00 in CLR
04:29 39.7 °F 30.4 °F 30.28 in Calm     69% 0.00 in CLR
04:40 39.1 °F 30.1 °F 30.28 in Calm     70% 0.00 in CLR
04:49 38.9 °F 29.9 °F 30.28 in Calm     70% 0.00 in CLR
04:59 39.0 °F 30.0 °F 30.28 in Calm     70% 0.00 in CLR
05:10 39.1 °F 29.8 °F 30.29 in Calm   1.0 mph 69% 0.00 in CLR
05:20 39.5 °F 29.8 °F 30.29 in Calm   1.0 mph 68% 0.00 in CLR
05:30 39.5 °F 30.2 °F 30.29 in Calm   1.0 mph 69% 0.00 in CLR
05:40 39.5 °F 29.8 °F 30.30 in Calm   1.0 mph 68% 0.00 in CLR
05:50 39.7 °F 30.0 °F 30.30 in Calm     68% 0.00 in CLR
06:00 39.8 °F 30.1 °F 30.31 in Calm   1.0 mph 68% 0.00 in CLR
06:10 39.6 °F 30.3 °F 30.31 in Calm     69% 0.00 in CLR
06:20 38.4 °F 30.5 °F 30.31 in Calm     73% 0.00 in CLR
06:30 37.6 °F 30.1 °F 30.31 in Calm     74% 0.00 in CLR
06:40 37.5 °F 31.6 °F 30.32 in Calm     79% 0.00 in CLR
06:50 36.9 °F 31.3 °F 30.33 in Calm     80% 0.00 in CLR
07:00 37.4 °F 31.5 °F 30.33 in Calm     79% 0.00 in CLR
07:10 38.8 °F 31.9 °F 30.33 in Calm     76% 0.00 in CLR
07:20 39.0 °F 32.4 °F 30.33 in Calm     77% 0.00 in CLR
07:30 39.2 °F 32.9 °F 30.34 in Calm     78% 0.00 in CLR
07:40 39.7 °F 32.8 °F 30.34 in Calm     76% 0.00 in CLR
07:50 39.9 °F 33.3 °F 30.34 in Calm     77% 0.00 in CLR
08:00 40.6 °F 33.6 °F 30.35 in Calm     76% 0.00 in CLR
08:10 41.5 °F 33.1 °F 30.36 in Calm     72% 0.00 in BKN
08:20 41.7 °F 34.4 °F 30.36 in Calm     75% 0.00 in BKN
08:30 42.1 °F 34.4 °F 30.36 in Calm     74% 0.00 in BKN
08:40 42.3 °F 34.6 °F 30.36 in Calm   1.0 mph 74% 0.00 in BKN
08:50 42.2 °F 34.2 °F 30.37 in Calm     73% 0.00 in BKN
09:00 42.4 °F 34.0 °F 30.37 in Calm   1.0 mph 72% 0.00 in BKN
09:09 42.4 °F 34.3 °F 30.37 in Calm   1.0 mph 73% 0.00 in BKN
09:19 42.4 °F 34.4 °F 30.38 in Calm   1.0 mph 73% 0.00 in BKN
09:30 42.6 °F 34.9 °F 30.37 in Calm   1.0 mph 74% 0.00 in BKN
09:40 42.7 °F 35.7 °F 30.37 in Calm   1.0 mph 76% 0.00 in BKN
09:50 42.8 °F 35.8 °F 30.37 in Calm   1.0 mph 76% 0.00 in BKN
10:00 43.2 °F 36.1 °F 30.36 in Calm   1.0 mph 76% 0.00 in BKN
10:10 43.7 °F 36.3 °F 30.37 in Calm   2.0 mph 75% 0.00 in BKN
10:19 43.9 °F 36.5 °F 30.37 in Calm   1.0 mph 75% 0.00 in BKN
10:30 44.1 °F 36.7 °F 30.38 in Calm   1.0 mph 75% 0.00 in BKN
10:40 44.4 °F 36.9 °F 30.38 in Calm     75% 0.00 in BKN
10:50 44.5 °F 37.1 °F 30.38 in Calm   1.0 mph 75% 0.00 in BKN
11:00 44.7 °F 37.3 °F 30.37 in Calm     75% 0.00 in BKN
11:10 44.9 °F 37.8 °F 30.37 in Calm     76% 0.00 in BKN
11:20 45.3 °F 38.2 °F 30.37 in Calm     76% 0.00 in BKN
11:30 45.6 °F 38.1 °F 30.37 in Calm   2.0 mph 75% 0.00 in BKN
11:40 45.8 °F 38.3 °F 30.36 in Calm     75% 0.00 in BKN
11:50 45.9 °F 38.4 °F 30.37 in Calm   1.0 mph 75% 0.00 in BKN
12:00 46.1 °F 38.6 °F 30.37 in Calm   1.0 mph 75% 0.00 in BKN
12:10 46.2 °F 38.7 °F 30.37 in Calm   2.0 mph 75% 0.00 in BKN
12:20 46.4 °F 38.9 °F 30.36 in NNW 1.0 mph 2.0 mph 75% 0.00 in BKN
12:30 46.5 °F 39.0 °F 30.35 in Calm   2.0 mph 75% 0.00 in BKN
12:40 46.7 °F 39.5 °F 30.36 in Calm   2.0 mph 76% 0.00 in BKN
12:50 47.0 °F 40.1 °F 30.36 in Calm   2.0 mph 77% 0.00 in BKN
13:00 47.0 °F 40.5 °F 30.36 in Calm   1.0 mph 78% 0.00 in BKN
13:10 47.2 °F 41.3 °F 30.36 in Calm   1.0 mph 80% 0.00 in -DZ
13:20 46.9 °F 41.1 °F 30.36 in Calm   2.0 mph 80% 0.00 in -DZ
13:30 46.9 °F 41.1 °F 30.35 in Calm   2.0 mph 80% 0.00 in -DZ
13:40 46.9 °F 41.4 °F 30.35 in Calm   1.0 mph 81% 0.00 in -DZ
13:50 47.0 °F 41.8 °F 30.35 in Calm   2.0 mph 82% 0.00 in -DZ
14:00 47.1 °F 42.2 °F 30.34 in Calm   2.0 mph 83% 0.00 in -DZ
14:10 47.5 °F 42.9 °F 30.34 in NW 1.0 mph 3.0 mph 84% 0.00 in -RA
14:20 48.1 °F 43.5 °F 30.34 in Calm   2.0 mph 84% 0.00 in -RA
14:29 48.7 °F 43.7 °F 30.34 in Calm   2.0 mph 83% 0.00 in -RA
14:40 48.9 °F 43.3 °F 30.34 in Calm   4.0 mph 81% 0.00 in -RA
14:49 49.2 °F 43.9 °F 30.33 in NNW 1.0 mph 3.0 mph 82% 0.00 in -RA
14:59 49.6 °F 44.0 °F 30.34 in NNW 1.0 mph 3.0 mph 81% 0.00 in -RA
15:10 49.8 °F 43.9 °F 30.34 in North 1.0 mph 2.0 mph 80% 0.00 in BKN
15:19 49.9 °F 44.0 °F 30.33 in Calm   1.0 mph 80% 0.00 in BKN
15:30 50.0 °F 44.1 °F 30.33 in Calm   1.0 mph 80% 0.00 in BKN
15:40 50.1 °F 44.2 °F 30.33 in Calm     80% 0.00 in BKN
15:50 50.1 °F 43.2 °F 30.32 in Calm   1.0 mph 77% 0.00 in BKN
16:00 50.4 °F 42.1 °F 30.32 in Calm   2.0 mph 73% 0.00 in BKN
16:10 50.5 °F 41.8 °F 30.33 in Calm   1.0 mph 72% 0.00 in BKN
16:20 50.5 °F 41.8 °F 30.32 in Calm     72% 0.00 in BKN
16:30 50.5 °F 42.2 °F 30.32 in Calm   1.0 mph 73% 0.00 in BKN
16:40 50.5 °F 42.1 °F 30.32 in Calm   2.0 mph 73% 0.00 in BKN
16:50 50.4 °F 42.1 °F 30.32 in Calm   2.0 mph 73% 0.00 in BKN
16:59 50.5 °F 42.2 °F 30.32 in Calm   2.0 mph 73% 0.00 in BKN
17:10 50.5 °F 42.5 °F 30.32 in Calm   2.0 mph 74% 0.00 in BKN
17:20 50.4 °F 42.8 °F 30.31 in Calm   2.0 mph 75% 0.00 in BKN
17:30 50.2 °F 43.3 °F 30.31 in Calm   1.0 mph 77% 0.00 in BKN
17:40 50.1 °F 43.5 °F 30.31 in Calm   2.0 mph 78% 0.00 in BKN
17:50 50.0 °F 43.7 °F 30.31 in Calm   3.0 mph 79% 0.00 in BKN
18:00 49.9 °F 44.0 °F 30.31 in Calm   2.0 mph 80% 0.00 in BKN
18:10 49.8 °F 44.2 °F 30.31 in Calm   3.0 mph 81% 0.00 in BKN
18:19 49.7 °F 44.4 °F 30.32 in Calm   1.0 mph 82% 0.00 in BKN
18:29 49.7 °F 44.4 °F 30.32 in Calm   2.0 mph 82% 0.00 in BKN
18:40 49.6 °F 44.6 °F 30.32 in Calm   2.0 mph 83% 0.00 in BKN
18:50 49.5 °F 44.6 °F 30.32 in Calm     83% 0.00 in BKN
19:00 49.3 °F 44.4 °F 30.32 in Calm   1.0 mph 83% 0.00 in BKN
19:10 49.3 °F 44.4 °F 30.32 in Calm   3.0 mph 83% 0.00 in BKN
19:20 49.2 °F 44.5 °F 30.32 in Calm   1.0 mph 84% 0.00 in BKN
19:30 48.9 °F 44.3 °F 30.32 in Calm   1.0 mph 84% 0.00 in BKN
19:40 48.5 °F 44.2 °F 30.32 in Calm   1.0 mph 85% 0.00 in BKN
19:50 48.0 °F 44.0 °F 30.32 in Calm     86% 0.00 in BKN
20:00 47.6 °F 43.9 °F 30.32 in Calm     87% 0.00 in BKN
20:10 47.7 °F 44.0 °F 30.32 in Calm   1.0 mph 87% 0.00 in FEW
20:20 48.2 °F 44.5 °F 30.32 in Calm   1.0 mph 87% 0.00 in FEW
20:30 48.5 °F 44.8 °F 30.31 in Calm   2.0 mph 87% 0.00 in FEW
20:40 48.5 °F 44.5 °F 30.31 in Calm   1.0 mph 86% 0.00 in FEW
20:50 48.4 °F 44.4 °F 30.31 in Calm   2.0 mph 86% 0.00 in FEW
20:59 48.2 °F 44.2 °F 30.31 in Calm   4.0 mph 86% 0.00 in FEW
21:10 48.3 °F 44.6 °F 30.31 in Calm   3.0 mph 87% 0.00 in FEW
21:20 48.6 °F 44.6 °F 30.31 in Calm   2.0 mph 86% 0.00 in FEW
21:30 48.8 °F 44.8 °F 30.31 in Calm   2.0 mph 86% 0.00 in FEW
21:40 49.3 °F 45.3 °F 30.31 in Calm   2.0 mph 86% 0.00 in FEW
21:49 49.6 °F 45.6 °F 30.31 in Calm   1.0 mph 86% 0.00 in FEW
21:59 49.9 °F 45.9 °F 30.31 in Calm   2.0 mph 86% 0.00 in FEW
22:09 50.1 °F 46.1 °F 30.31 in Calm   1.0 mph 86% 0.00 in SCT
22:19 50.3 °F 46.3 °F 30.31 in Calm   2.0 mph 86% 0.00 in SCT
22:29 50.7 °F 46.9 °F 30.30 in North 1.0 mph 3.0 mph 87% 0.00 in SCT
22:40 51.1 °F 47.1 °F 30.30 in Calm   4.0 mph 86% 0.00 in SCT
22:49 51.2 °F 47.2 °F 30.30 in North 1.0 mph 2.0 mph 86% 0.00 in SCT
23:00 51.4 °F 47.7 °F 30.30 in Calm   1.0 mph 87% 0.00 in SCT
23:09 51.8 °F 47.7 °F 30.30 in Calm   2.0 mph 86% 0.00 in BKN
23:20 52.0 °F 47.9 °F 30.30 in Calm   2.0 mph 86% 0.00 in BKN
23:30 52.0 °F 48.3 °F 30.30 in Calm   1.0 mph 87% 0.00 in BKN
23:39 52.6 °F 48.8 °F 30.30 in Calm   2.0 mph 87% 0.00 in BKN
23:49 52.8 °F 49.0 °F 30.30 in Calm   1.0 mph 87% 0.00 in BKN
23:59 53.1 °F 49.4 °F 30.30 in NNW 1.0 mph 4.0 mph 87% 0.00 in BKN
TarryTown NY Weather
Compliments of Weather Underground - 1.75 mb